sensor_id;sensor_type;location;lat;lon;timestamp;P1;durP1;ratioP1;P2;durP2;ratioP2
11305;SDS011;5708;50.660;6.778;2022-11-21T00:00:49;19.08;;;3.38;;
11305;SDS011;5708;50.660;6.778;2022-11-21T00:03:15;15.02;;;2.92;;
11305;SDS011;5708;50.660;6.778;2022-11-21T00:05:44;16.80;;;3.58;;
11305;SDS011;5708;50.660;6.778;2022-11-21T00:08:11;13.55;;;3.55;;
11305;SDS011;5708;50.660;6.778;2022-11-21T00:10:38;19.88;;;3.42;;
11305;SDS011;5708;50.660;6.778;2022-11-21T00:13:04;17.50;;;4.05;;
11305;SDS011;5708;50.660;6.778;2022-11-21T00:15:30;20.63;;;4.22;;
11305;SDS011;5708;50.660;6.778;2022-11-21T00:17:55;17.98;;;4.13;;
11305;SDS011;5708;50.660;6.778;2022-11-21T00:20:20;17.38;;;4.07;;
11305;SDS011;5708;50.660;6.778;2022-11-21T00:22:46;20.08;;;3.72;;
11305;SDS011;5708;50.660;6.778;2022-11-21T00:25:12;18.92;;;3.70;;
11305;SDS011;5708;50.660;6.778;2022-11-21T00:27:38;21.58;;;4.13;;
11305;SDS011;5708;50.660;6.778;2022-11-21T00:30:04;18.10;;;3.55;;
11305;SDS011;5708;50.660;6.778;2022-11-21T00:32:31;22.33;;;3.95;;
11305;SDS011;5708;50.660;6.778;2022-11-21T00:34:56;12.48;;;3.53;;
11305;SDS011;5708;50.660;6.778;2022-11-21T00:37:21;19.23;;;3.92;;
11305;SDS011;5708;50.660;6.778;2022-11-21T00:39:47;14.40;;;3.50;;
11305;SDS011;5708;50.660;6.778;2022-11-21T00:42:12;16.52;;;4.40;;
11305;SDS011;5708;50.660;6.778;2022-11-21T00:44:38;18.98;;;3.83;;
11305;SDS011;5708;50.660;6.778;2022-11-21T00:47:03;24.48;;;3.90;;
11305;SDS011;5708;50.660;6.778;2022-11-21T00:49:28;16.58;;;3.75;;
11305;SDS011;5708;50.660;6.778;2022-11-21T00:51:53;17.63;;;3.30;;
11305;SDS011;5708;50.660;6.778;2022-11-21T00:54:19;14.25;;;3.72;;
11305;SDS011;5708;50.660;6.778;2022-11-21T00:56:44;19.83;;;3.72;;
11305;SDS011;5708;50.660;6.778;2022-11-21T00:59:09;21.63;;;4.47;;
11305;SDS011;5708;50.660;6.778;2022-11-21T01:01:35;17.77;;;4.07;;
11305;SDS011;5708;50.660;6.778;2022-11-21T01:04:00;14.48;;;4.00;;
11305;SDS011;5708;50.660;6.778;2022-11-21T01:06:25;16.40;;;4.20;;
11305;SDS011;5708;50.660;6.778;2022-11-21T01:08:51;20.33;;;4.10;;
11305;SDS011;5708;50.660;6.778;2022-11-21T01:11:17;13.32;;;4.18;;
11305;SDS011;5708;50.660;6.778;2022-11-21T01:13:44;18.27;;;4.38;;
11305;SDS011;5708;50.660;6.778;2022-11-21T01:16:13;17.67;;;4.50;;
11305;SDS011;5708;50.660;6.778;2022-11-21T01:18:40;18.77;;;4.45;;
11305;SDS011;5708;50.660;6.778;2022-11-21T01:21:06;18.80;;;4.35;;
11305;SDS011;5708;50.660;6.778;2022-11-21T01:23:43;18.10;;;4.10;;
11305;SDS011;5708;50.660;6.778;2022-11-21T01:26:13;17.33;;;4.40;;
11305;SDS011;5708;50.660;6.778;2022-11-21T01:28:40;19.13;;;4.32;;
11305;SDS011;5708;50.660;6.778;2022-11-21T01:31:06;17.33;;;4.68;;
11305;SDS011;5708;50.660;6.778;2022-11-21T01:33:45;16.40;;;4.40;;
11305;SDS011;5708;50.660;6.778;2022-11-21T01:36:12;16.88;;;3.97;;
11305;SDS011;5708;50.660;6.778;2022-11-21T01:38:49;15.68;;;3.85;;
11305;SDS011;5708;50.660;6.778;2022-11-21T01:41:19;13.73;;;3.67;;
11305;SDS011;5708;50.660;6.778;2022-11-21T01:43:46;14.75;;;3.50;;
11305;SDS011;5708;50.660;6.778;2022-11-21T01:46:16;14.85;;;3.78;;
11305;SDS011;5708;50.660;6.778;2022-11-21T01:51:27;16.45;;;3.30;;
11305;SDS011;5708;50.660;6.778;2022-11-21T01:56:53;11.63;;;3.22;;
11305;SDS011;5708;50.660;6.778;2022-11-21T01:59:26;12.60;;;3.20;;
11305;SDS011;5708;50.660;6.778;2022-11-21T02:01:54;11.82;;;2.97;;
11305;SDS011;5708;50.660;6.778;2022-11-21T02:04:20;10.15;;;2.80;;
11305;SDS011;5708;50.660;6.778;2022-11-21T02:06:46;11.02;;;2.80;;
11305;SDS011;5708;50.660;6.778;2022-11-21T02:09:12;12.00;;;2.95;;
11305;SDS011;5708;50.660;6.778;2022-11-21T02:11:39;9.40;;;2.55;;
11305;SDS011;5708;50.660;6.778;2022-11-21T02:14:07;11.32;;;2.70;;
11305;SDS011;5708;50.660;6.778;2022-11-21T02:16:33;10.65;;;3.10;;
11305;SDS011;5708;50.660;6.778;2022-11-21T02:18:59;10.15;;;3.05;;
11305;SDS011;5708;50.660;6.778;2022-11-21T02:26:36;16.05;;;3.20;;
11305;SDS011;5708;50.660;6.778;2022-11-21T02:29:02;12.55;;;3.20;;
11305;SDS011;5708;50.660;6.778;2022-11-21T02:31:27;13.85;;;3.67;;
11305;SDS011;5708;50.660;6.778;2022-11-21T02:33:52;10.85;;;3.28;;
11305;SDS011;5708;50.660;6.778;2022-11-21T02:39:04;14.80;;;3.58;;
11305;SDS011;5708;50.660;6.778;2022-11-21T02:41:31;11.73;;;3.28;;
11305;SDS011;5708;50.660;6.778;2022-11-21T02:43:58;12.90;;;3.28;;
11305;SDS011;5708;50.660;6.778;2022-11-21T02:46:29;13.30;;;3.88;;
11305;SDS011;5708;50.660;6.778;2022-11-21T02:48:54;14.75;;;3.17;;
11305;SDS011;5708;50.660;6.778;2022-11-21T02:51:21;11.32;;;3.25;;
11305;SDS011;5708;50.660;6.778;2022-11-21T02:53:46;7.10;;;2.92;;
11305;SDS011;5708;50.660;6.778;2022-11-21T02:56:11;10.05;;;3.05;;
11305;SDS011;5708;50.660;6.778;2022-11-21T02:58:37;13.13;;;3.35;;
11305;SDS011;5708;50.660;6.778;2022-11-21T03:01:02;10.70;;;2.72;;
11305;SDS011;5708;50.660;6.778;2022-11-21T03:03:27;10.63;;;3.50;;
11305;SDS011;5708;50.660;6.778;2022-11-21T03:05:53;10.32;;;3.10;;
11305;SDS011;5708;50.660;6.778;2022-11-21T03:08:18;17.90;;;3.30;;
11305;SDS011;5708;50.660;6.778;2022-11-21T03:10:43;10.38;;;3.00;;
11305;SDS011;5708;50.660;6.778;2022-11-21T03:13:09;10.50;;;2.90;;
11305;SDS011;5708;50.660;6.778;2022-11-21T03:15:34;12.88;;;3.25;;
11305;SDS011;5708;50.660;6.778;2022-11-21T03:18:00;11.57;;;3.08;;
11305;SDS011;5708;50.660;6.778;2022-11-21T03:20:27;10.48;;;2.95;;
11305;SDS011;5708;50.660;6.778;2022-11-21T03:22:53;11.07;;;3.05;;
11305;SDS011;5708;50.660;6.778;2022-11-21T03:25:18;9.80;;;3.20;;
11305;SDS011;5708;50.660;6.778;2022-11-21T03:27:44;11.43;;;3.13;;
11305;SDS011;5708;50.660;6.778;2022-11-21T03:30:09;14.23;;;3.35;;
11305;SDS011;5708;50.660;6.778;2022-11-21T03:32:35;12.07;;;3.50;;
11305;SDS011;5708;50.660;6.778;2022-11-21T03:35:00;13.55;;;3.75;;
11305;SDS011;5708;50.660;6.778;2022-11-21T03:37:25;10.43;;;3.58;;
11305;SDS011;5708;50.660;6.778;2022-11-21T03:39:51;10.07;;;3.17;;
11305;SDS011;5708;50.660;6.778;2022-11-21T03:42:16;10.25;;;2.88;;
11305;SDS011;5708;50.660;6.778;2022-11-21T03:44:41;13.07;;;3.42;;
11305;SDS011;5708;50.660;6.778;2022-11-21T03:47:07;13.48;;;3.08;;
11305;SDS011;5708;50.660;6.778;2022-11-21T03:49:32;12.77;;;3.13;;
11305;SDS011;5708;50.660;6.778;2022-11-21T03:51:57;9.75;;;2.90;;
11305;SDS011;5708;50.660;6.778;2022-11-21T03:54:23;10.25;;;3.30;;
11305;SDS011;5708;50.660;6.778;2022-11-21T03:56:48;10.88;;;4.03;;
11305;SDS011;5708;50.660;6.778;2022-11-21T03:59:13;11.25;;;3.72;;
11305;SDS011;5708;50.660;6.778;2022-11-21T04:01:39;10.18;;;4.15;;
11305;SDS011;5708;50.660;6.778;2022-11-21T04:04:04;10.10;;;3.78;;
11305;SDS011;5708;50.660;6.778;2022-11-21T04:06:29;8.90;;;3.58;;
11305;SDS011;5708;50.660;6.778;2022-11-21T04:08:55;6.53;;;3.13;;
11305;SDS011;5708;50.660;6.778;2022-11-21T04:11:20;9.60;;;3.40;;
11305;SDS011;5708;50.660;6.778;2022-11-21T04:13:47;10.50;;;3.00;;
11305;SDS011;5708;50.660;6.778;2022-11-21T04:16:12;9.18;;;3.17;;
11305;SDS011;5708;50.660;6.778;2022-11-21T04:18:38;8.88;;;2.90;;
11305;SDS011;5708;50.660;6.778;2022-11-21T04:21:04;7.05;;;2.80;;
11305;SDS011;5708;50.660;6.778;2022-11-21T04:23:31;9.75;;;3.20;;
11305;SDS011;5708;50.660;6.778;2022-11-21T04:25:56;8.07;;;2.70;;
11305;SDS011;5708;50.660;6.778;2022-11-21T04:28:22;7.97;;;2.47;;
11305;SDS011;5708;50.660;6.778;2022-11-21T04:30:47;7.78;;;3.05;;
11305;SDS011;5708;50.660;6.778;2022-11-21T04:33:14;8.25;;;2.40;;
11305;SDS011;5708;50.660;6.778;2022-11-21T04:35:41;7.93;;;2.90;;
11305;SDS011;5708;50.660;6.778;2022-11-21T04:38:06;8.40;;;3.05;;
11305;SDS011;5708;50.660;6.778;2022-11-21T04:40:31;11.15;;;3.10;;
11305;SDS011;5708;50.660;6.778;2022-11-21T04:42:57;9.65;;;2.90;;
11305;SDS011;5708;50.660;6.778;2022-11-21T04:45:22;10.07;;;3.60;;
11305;SDS011;5708;50.660;6.778;2022-11-21T04:47:47;9.52;;;3.60;;
11305;SDS011;5708;50.660;6.778;2022-11-21T04:50:14;13.05;;;3.88;;
11305;SDS011;5708;50.660;6.778;2022-11-21T04:52:41;9.70;;;3.28;;
11305;SDS011;5708;50.660;6.778;2022-11-21T04:55:06;10.13;;;3.25;;
11305;SDS011;5708;50.660;6.778;2022-11-21T04:57:32;10.98;;;4.00;;
11305;SDS011;5708;50.660;6.778;2022-11-21T04:59:58;14.00;;;4.50;;
11305;SDS011;5708;50.660;6.778;2022-11-21T05:02:23;8.73;;;4.18;;
11305;SDS011;5708;50.660;6.778;2022-11-21T05:04:49;15.63;;;4.38;;
11305;SDS011;5708;50.660;6.778;2022-11-21T05:07:15;12.65;;;4.20;;
11305;SDS011;5708;50.660;6.778;2022-11-21T05:09:40;10.68;;;4.07;;
11305;SDS011;5708;50.660;6.778;2022-11-21T05:12:07;11.48;;;4.15;;
11305;SDS011;5708;50.660;6.778;2022-11-21T05:14:52;13.68;;;4.80;;
11305;SDS011;5708;50.660;6.778;2022-11-21T05:17:17;9.10;;;3.95;;
11305;SDS011;5708;50.660;6.778;2022-11-21T05:19:42;13.00;;;5.07;;
11305;SDS011;5708;50.660;6.778;2022-11-21T05:22:07;17.05;;;4.90;;
11305;SDS011;5708;50.660;6.778;2022-11-21T05:24:33;11.65;;;4.50;;
11305;SDS011;5708;50.660;6.778;2022-11-21T05:26:58;11.25;;;4.47;;
11305;SDS011;5708;50.660;6.778;2022-11-21T05:29:23;9.45;;;4.05;;
11305;SDS011;5708;50.660;6.778;2022-11-21T05:31:49;13.13;;;4.53;;
11305;SDS011;5708;50.660;6.778;2022-11-21T05:34:14;10.68;;;4.90;;
11305;SDS011;5708;50.660;6.778;2022-11-21T05:36:39;12.50;;;5.35;;
11305;SDS011;5708;50.660;6.778;2022-11-21T05:39:05;9.63;;;4.43;;
11305;SDS011;5708;50.660;6.778;2022-11-21T05:41:30;10.45;;;4.60;;
11305;SDS011;5708;50.660;6.778;2022-11-21T05:43:55;11.00;;;4.18;;
11305;SDS011;5708;50.660;6.778;2022-11-21T05:46:21;9.73;;;4.60;;
11305;SDS011;5708;50.660;6.778;2022-11-21T05:48:48;10.65;;;5.00;;
11305;SDS011;5708;50.660;6.778;2022-11-21T05:51:14;10.40;;;4.50;;
11305;SDS011;5708;50.660;6.778;2022-11-21T05:53:40;11.55;;;4.70;;
11305;SDS011;5708;50.660;6.778;2022-11-21T05:56:06;10.27;;;4.15;;
11305;SDS011;5708;50.660;6.778;2022-11-21T05:58:33;7.32;;;3.75;;
11305;SDS011;5708;50.660;6.778;2022-11-21T06:00:59;11.88;;;4.68;;
11305;SDS011;5708;50.660;6.778;2022-11-21T06:03:25;10.95;;;4.93;;
11305;SDS011;5708;50.660;6.778;2022-11-21T06:05:50;10.55;;;4.63;;
11305;SDS011;5708;50.660;6.778;2022-11-21T06:08:16;12.05;;;4.88;;
11305;SDS011;5708;50.660;6.778;2022-11-21T06:10:41;11.70;;;5.22;;
11305;SDS011;5708;50.660;6.778;2022-11-21T06:13:06;11.32;;;5.30;;
11305;SDS011;5708;50.660;6.778;2022-11-21T06:15:49;10.23;;;4.95;;
11305;SDS011;5708;50.660;6.778;2022-11-21T06:18:21;11.00;;;5.18;;
11305;SDS011;5708;50.660;6.778;2022-11-21T06:20:46;8.82;;;5.00;;
11305;SDS011;5708;50.660;6.778;2022-11-21T06:23:12;9.93;;;6.35;;
11305;SDS011;5708;50.660;6.778;2022-11-21T06:25:37;10.65;;;5.15;;
11305;SDS011;5708;50.660;6.778;2022-11-21T06:28:02;12.77;;;5.88;;
11305;SDS011;5708;50.660;6.778;2022-11-21T06:30:28;11.00;;;5.30;;
11305;SDS011;5708;50.660;6.778;2022-11-21T06:32:53;12.20;;;5.45;;
11305;SDS011;5708;50.660;6.778;2022-11-21T06:35:19;7.97;;;4.93;;
11305;SDS011;5708;50.660;6.778;2022-11-21T06:37:44;9.55;;;5.05;;
11305;SDS011;5708;50.660;6.778;2022-11-21T06:40:09;8.57;;;4.85;;
11305;SDS011;5708;50.660;6.778;2022-11-21T06:42:35;12.27;;;5.18;;
11305;SDS011;5708;50.660;6.778;2022-11-21T06:45:00;10.57;;;4.97;;
11305;SDS011;5708;50.660;6.778;2022-11-21T06:47:26;9.25;;;4.63;;
11305;SDS011;5708;50.660;6.778;2022-11-21T06:49:51;10.50;;;4.50;;
11305;SDS011;5708;50.660;6.778;2022-11-21T06:52:16;9.50;;;4.45;;
11305;SDS011;5708;50.660;6.778;2022-11-21T06:54:42;6.93;;;4.15;;
11305;SDS011;5708;50.660;6.778;2022-11-21T06:57:07;8.30;;;4.32;;
11305;SDS011;5708;50.660;6.778;2022-11-21T06:59:32;10.15;;;4.18;;
11305;SDS011;5708;50.660;6.778;2022-11-21T07:01:57;8.30;;;3.95;;
11305;SDS011;5708;50.660;6.778;2022-11-21T07:04:23;9.35;;;3.53;;
11305;SDS011;5708;50.660;6.778;2022-11-21T07:06:48;7.47;;;3.53;;
11305;SDS011;5708;50.660;6.778;2022-11-21T07:09:13;7.57;;;3.20;;
11305;SDS011;5708;50.660;6.778;2022-11-21T07:11:39;8.30;;;3.03;;
11305;SDS011;5708;50.660;6.778;2022-11-21T07:14:04;9.25;;;3.85;;
11305;SDS011;5708;50.660;6.778;2022-11-21T07:16:29;8.75;;;3.45;;
11305;SDS011;5708;50.660;6.778;2022-11-21T07:18:56;6.47;;;3.42;;
11305;SDS011;5708;50.660;6.778;2022-11-21T07:21:22;7.00;;;3.53;;
11305;SDS011;5708;50.660;6.778;2022-11-21T07:23:47;7.13;;;3.30;;
11305;SDS011;5708;50.660;6.778;2022-11-21T07:26:12;7.07;;;3.38;;
11305;SDS011;5708;50.660;6.778;2022-11-21T07:28:38;8.60;;;3.45;;
11305;SDS011;5708;50.660;6.778;2022-11-21T07:31:03;7.07;;;2.78;;
11305;SDS011;5708;50.660;6.778;2022-11-21T07:33:29;7.03;;;2.90;;
11305;SDS011;5708;50.660;6.778;2022-11-21T07:35:54;7.07;;;2.95;;
11305;SDS011;5708;50.660;6.778;2022-11-21T07:38:21;8.98;;;2.95;;
11305;SDS011;5708;50.660;6.778;2022-11-21T07:40:46;8.63;;;3.15;;
11305;SDS011;5708;50.660;6.778;2022-11-21T07:43:12;9.40;;;3.10;;
11305;SDS011;5708;50.660;6.778;2022-11-21T07:45:37;8.23;;;3.53;;
11305;SDS011;5708;50.660;6.778;2022-11-21T07:48:03;6.28;;;2.95;;
11305;SDS011;5708;50.660;6.778;2022-11-21T07:50:30;14.30;;;3.72;;
11305;SDS011;5708;50.660;6.778;2022-11-21T07:52:59;13.48;;;3.28;;
11305;SDS011;5708;50.660;6.778;2022-11-21T07:55:26;8.18;;;3.50;;
11305;SDS011;5708;50.660;6.778;2022-11-21T07:58:04;14.25;;;3.50;;
11305;SDS011;5708;50.660;6.778;2022-11-21T08:00:34;8.48;;;2.72;;
11305;SDS011;5708;50.660;6.778;2022-11-21T08:03:00;9.10;;;2.83;;
11305;SDS011;5708;50.660;6.778;2022-11-21T08:05:26;6.47;;;2.55;;
11305;SDS011;5708;50.660;6.778;2022-11-21T08:07:51;5.28;;;1.65;;
11305;SDS011;5708;50.660;6.778;2022-11-21T08:10:17;4.68;;;2.03;;
11305;SDS011;5708;50.660;6.778;2022-11-21T08:12:43;3.65;;;1.85;;
11305;SDS011;5708;50.660;6.778;2022-11-21T08:15:09;9.02;;;2.03;;
11305;SDS011;5708;50.660;6.778;2022-11-21T08:17:34;7.03;;;1.92;;
11305;SDS011;5708;50.660;6.778;2022-11-21T08:20:00;4.43;;;1.80;;
11305;SDS011;5708;50.660;6.778;2022-11-21T08:22:25;4.30;;;1.83;;
11305;SDS011;5708;50.660;6.778;2022-11-21T08:24:51;4.20;;;1.88;;
11305;SDS011;5708;50.660;6.778;2022-11-21T08:27:18;5.30;;;2.03;;
11305;SDS011;5708;50.660;6.778;2022-11-21T08:29:45;5.07;;;1.63;;
11305;SDS011;5708;50.660;6.778;2022-11-21T08:32:10;5.03;;;2.10;;
11305;SDS011;5708;50.660;6.778;2022-11-21T08:34:35;2.80;;;1.70;;
11305;SDS011;5708;50.660;6.778;2022-11-21T08:37:01;5.70;;;2.33;;
11305;SDS011;5708;50.660;6.778;2022-11-21T08:39:26;5.65;;;1.40;;
11305;SDS011;5708;50.660;6.778;2022-11-21T08:41:52;3.25;;;1.50;;
11305;SDS011;5708;50.660;6.778;2022-11-21T08:44:32;4.65;;;1.83;;
11305;SDS011;5708;50.660;6.778;2022-11-21T08:46:58;6.07;;;1.60;;
11305;SDS011;5708;50.660;6.778;2022-11-21T08:49:24;3.05;;;1.40;;
11305;SDS011;5708;50.660;6.778;2022-11-21T08:51:50;4.20;;;1.65;;
11305;SDS011;5708;50.660;6.778;2022-11-21T08:54:19;5.30;;;1.58;;
11305;SDS011;5708;50.660;6.778;2022-11-21T08:56:49;6.28;;;1.80;;
11305;SDS011;5708;50.660;6.778;2022-11-21T08:59:15;4.95;;;1.65;;
11305;SDS011;5708;50.660;6.778;2022-11-21T09:01:41;4.35;;;1.60;;
11305;SDS011;5708;50.660;6.778;2022-11-21T09:04:06;7.05;;;1.95;;
11305;SDS011;5708;50.660;6.778;2022-11-21T09:06:32;4.95;;;1.20;;
11305;SDS011;5708;50.660;6.778;2022-11-21T09:08:58;4.07;;;1.42;;
11305;SDS011;5708;50.660;6.778;2022-11-21T09:11:23;7.78;;;2.10;;
11305;SDS011;5708;50.660;6.778;2022-11-21T09:13:51;6.80;;;1.65;;
11305;SDS011;5708;50.660;6.778;2022-11-21T09:16:36;2.80;;;1.25;;
11305;SDS011;5708;50.660;6.778;2022-11-21T09:19:20;3.30;;;1.00;;
11305;SDS011;5708;50.660;6.778;2022-11-21T09:21:49;2.35;;;0.93;;
11305;SDS011;5708;50.660;6.778;2022-11-21T09:24:15;6.75;;;1.05;;
11305;SDS011;5708;50.660;6.778;2022-11-21T09:26:40;4.88;;;0.80;;
11305;SDS011;5708;50.660;6.778;2022-11-21T09:29:06;4.25;;;1.77;;
11305;SDS011;5708;50.660;6.778;2022-11-21T09:31:31;8.52;;;2.83;;
11305;SDS011;5708;50.660;6.778;2022-11-21T09:33:56;4.22;;;1.40;;
11305;SDS011;5708;50.660;6.778;2022-11-21T09:36:22;2.08;;;1.00;;
11305;SDS011;5708;50.660;6.778;2022-11-21T09:38:50;2.10;;;0.93;;
11305;SDS011;5708;50.660;6.778;2022-11-21T09:41:20;2.90;;;0.90;;
11305;SDS011;5708;50.660;6.778;2022-11-21T09:44:12;4.00;;;0.95;;
11305;SDS011;5708;50.660;6.778;2022-11-21T09:46:44;2.95;;;0.90;;
11305;SDS011;5708;50.660;6.778;2022-11-21T09:49:11;4.32;;;1.20;;
11305;SDS011;5708;50.660;6.778;2022-11-21T09:51:36;3.25;;;1.17;;
11305;SDS011;5708;50.660;6.778;2022-11-21T09:56:34;4.90;;;1.02;;
11305;SDS011;5708;50.660;6.778;2022-11-21T10:01:37;6.80;;;1.60;;
11305;SDS011;5708;50.660;6.778;2022-11-21T10:04:03;3.95;;;1.10;;
11305;SDS011;5708;50.660;6.778;2022-11-21T10:06:30;2.05;;;0.90;;
11305;SDS011;5708;50.660;6.778;2022-11-21T10:09:16;4.38;;;1.35;;
11305;SDS011;5708;50.660;6.778;2022-11-21T10:11:51;4.68;;;1.00;;
11305;SDS011;5708;50.660;6.778;2022-11-21T10:25:52;5.43;;;1.15;;
11305;SDS011;5708;50.660;6.778;2022-11-21T10:28:21;3.88;;;1.20;;
11305;SDS011;5708;50.660;6.778;2022-11-21T10:30:52;9.45;;;1.48;;
11305;SDS011;5708;50.660;6.778;2022-11-21T10:33:26;5.90;;;1.38;;
11305;SDS011;5708;50.660;6.778;2022-11-21T10:35:58;9.85;;;2.58;;
11305;SDS011;5708;50.660;6.778;2022-11-21T10:38:26;8.10;;;2.38;;
11305;SDS011;5708;50.660;6.778;2022-11-21T10:43:40;13.63;;;3.50;;
11305;SDS011;5708;50.660;6.778;2022-11-21T10:46:28;4.95;;;1.42;;
11305;SDS011;5708;50.660;6.778;2022-11-21T10:49:00;12.02;;;1.67;;
11305;SDS011;5708;50.660;6.778;2022-11-21T10:54:11;11.55;;;2.47;;
11305;SDS011;5708;50.660;6.778;2022-11-21T10:56:57;19.98;;;1.92;;
11305;SDS011;5708;50.660;6.778;2022-11-21T10:59:26;23.55;;;1.98;;
11305;SDS011;5708;50.660;6.778;2022-11-21T11:01:57;11.32;;;1.92;;
11305;SDS011;5708;50.660;6.778;2022-11-21T11:04:26;6.43;;;1.40;;
11305;SDS011;5708;50.660;6.778;2022-11-21T11:06:52;5.78;;;1.38;;
11305;SDS011;5708;50.660;6.778;2022-11-21T11:09:24;3.90;;;1.23;;
11305;SDS011;5708;50.660;6.778;2022-11-21T11:14:51;6.05;;;1.40;;
11305;SDS011;5708;50.660;6.778;2022-11-21T11:17:25;7.68;;;1.48;;
11305;SDS011;5708;50.660;6.778;2022-11-21T11:20:05;7.68;;;2.30;;
11305;SDS011;5708;50.660;6.778;2022-11-21T11:22:31;9.93;;;2.17;;
11305;SDS011;5708;50.660;6.778;2022-11-21T11:24:57;19.83;;;5.80;;
11305;SDS011;5708;50.660;6.778;2022-11-21T11:27:26;16.50;;;5.07;;
11305;SDS011;5708;50.660;6.778;2022-11-21T11:29:52;19.77;;;5.47;;
11305;SDS011;5708;50.660;6.778;2022-11-21T11:32:18;19.38;;;6.45;;
11305;SDS011;5708;50.660;6.778;2022-11-21T11:42:55;6.90;;;1.85;;
11305;SDS011;5708;50.660;6.778;2022-11-21T11:50:02;6.22;;;1.60;;
11305;SDS011;5708;50.660;6.778;2022-11-21T11:52:27;8.10;;;1.58;;
11305;SDS011;5708;50.660;6.778;2022-11-21T11:54:57;2.13;;;0.70;;
11305;SDS011;5708;50.660;6.778;2022-11-21T11:57:25;4.88;;;1.23;;
11305;SDS011;5708;50.660;6.778;2022-11-21T11:59:56;6.13;;;1.60;;
11305;SDS011;5708;50.660;6.778;2022-11-21T12:02:57;8.23;;;1.58;;
11305;SDS011;5708;50.660;6.778;2022-11-21T12:05:26;4.18;;;1.35;;
11305;SDS011;5708;50.660;6.778;2022-11-21T12:07:59;10.63;;;2.00;;
11305;SDS011;5708;50.660;6.778;2022-11-21T12:10:32;9.27;;;3.00;;
11305;SDS011;5708;50.660;6.778;2022-11-21T12:13:21;6.15;;;2.15;;
11305;SDS011;5708;50.660;6.778;2022-11-21T12:15:47;9.82;;;2.30;;
11305;SDS011;5708;50.660;6.778;2022-11-21T12:20:48;8.18;;;0.80;;
11305;SDS011;5708;50.660;6.778;2022-11-21T12:23:20;10.18;;;1.70;;
11305;SDS011;5708;50.660;6.778;2022-11-21T12:28:42;8.40;;;1.55;;
11305;SDS011;5708;50.660;6.778;2022-11-21T12:31:21;4.55;;;1.13;;
11305;SDS011;5708;50.660;6.778;2022-11-21T12:33:57;5.78;;;1.30;;
11305;SDS011;5708;50.660;6.778;2022-11-21T12:36:37;9.73;;;1.63;;
11305;SDS011;5708;50.660;6.778;2022-11-21T12:45:32;11.38;;;1.98;;
11305;SDS011;5708;50.660;6.778;2022-11-21T12:51:18;8.98;;;1.30;;
11305;SDS011;5708;50.660;6.778;2022-11-21T12:54:35;11.05;;;1.30;;
11305;SDS011;5708;50.660;6.778;2022-11-21T12:57:10;6.68;;;2.40;;
11305;SDS011;5708;50.660;6.778;2022-11-21T13:00:00;13.05;;;2.42;;
11305;SDS011;5708;50.660;6.778;2022-11-21T13:02:33;10.32;;;2.40;;
11305;SDS011;5708;50.660;6.778;2022-11-21T13:05:09;5.43;;;1.25;;
11305;SDS011;5708;50.660;6.778;2022-11-21T13:07:37;8.43;;;1.20;;
11305;SDS011;5708;50.660;6.778;2022-11-21T13:10:03;5.70;;;1.30;;
11305;SDS011;5708;50.660;6.778;2022-11-21T13:15:27;9.18;;;1.40;;
11305;SDS011;5708;50.660;6.778;2022-11-21T13:17:55;6.53;;;1.17;;
11305;SDS011;5708;50.660;6.778;2022-11-21T13:23:33;5.82;;;1.38;;
11305;SDS011;5708;50.660;6.778;2022-11-21T13:25:58;7.45;;;1.45;;
11305;SDS011;5708;50.660;6.778;2022-11-21T13:28:30;6.97;;;1.35;;
11305;SDS011;5708;50.660;6.778;2022-11-21T13:30:58;6.97;;;1.38;;
11305;SDS011;5708;50.660;6.778;2022-11-21T13:36:06;8.80;;;1.63;;
11305;SDS011;5708;50.660;6.778;2022-11-21T13:41:52;10.45;;;1.63;;
11305;SDS011;5708;50.660;6.778;2022-11-21T13:44:39;7.50;;;2.30;;
11305;SDS011;5708;50.660;6.778;2022-11-21T13:49:36;7.68;;;1.58;;
11305;SDS011;5708;50.660;6.778;2022-11-21T13:52:07;8.95;;;1.80;;
11305;SDS011;5708;50.660;6.778;2022-11-21T14:00:16;7.53;;;1.70;;
11305;SDS011;5708;50.660;6.778;2022-11-21T14:05:59;8.88;;;1.77;;
11305;SDS011;5708;50.660;6.778;2022-11-21T14:08:28;11.95;;;2.50;;
11305;SDS011;5708;50.660;6.778;2022-11-21T14:10:54;8.20;;;2.38;;
11305;SDS011;5708;50.660;6.778;2022-11-21T14:13:27;17.23;;;2.67;;
11305;SDS011;5708;50.660;6.778;2022-11-21T14:16:01;7.78;;;1.80;;
11305;SDS011;5708;50.660;6.778;2022-11-21T14:18:38;10.40;;;1.98;;
11305;SDS011;5708;50.660;6.778;2022-11-21T14:21:14;12.57;;;2.47;;
11305;SDS011;5708;50.660;6.778;2022-11-21T14:23:43;9.90;;;2.10;;
11305;SDS011;5708;50.660;6.778;2022-11-21T14:26:10;11.77;;;2.70;;
11305;SDS011;5708;50.660;6.778;2022-11-21T14:28:38;11.98;;;2.30;;
11305;SDS011;5708;50.660;6.778;2022-11-21T14:31:04;13.55;;;2.40;;
11305;SDS011;5708;50.660;6.778;2022-11-21T14:33:33;11.20;;;2.75;;
11305;SDS011;5708;50.660;6.778;2022-11-21T14:38:26;9.90;;;2.45;;
11305;SDS011;5708;50.660;6.778;2022-11-21T14:46:22;14.50;;;2.50;;
11305;SDS011;5708;50.660;6.778;2022-11-21T14:48:52;11.05;;;2.30;;
11305;SDS011;5708;50.660;6.778;2022-11-21T14:51:18;9.98;;;2.45;;
11305;SDS011;5708;50.660;6.778;2022-11-21T14:53:45;8.82;;;2.30;;
11305;SDS011;5708;50.660;6.778;2022-11-21T14:56:33;15.13;;;2.40;;
11305;SDS011;5708;50.660;6.778;2022-11-21T14:58:57;10.13;;;2.67;;
11305;SDS011;5708;50.660;6.778;2022-11-21T15:01:32;14.80;;;2.85;;
11305;SDS011;5708;50.660;6.778;2022-11-21T15:04:02;11.32;;;2.55;;
11305;SDS011;5708;50.660;6.778;2022-11-21T15:06:29;9.77;;;2.13;;
11305;SDS011;5708;50.660;6.778;2022-11-21T15:08:57;12.52;;;2.75;;
11305;SDS011;5708;50.660;6.778;2022-11-21T15:11:24;11.05;;;2.10;;
11305;SDS011;5708;50.660;6.778;2022-11-21T15:14:05;9.35;;;2.65;;
11305;SDS011;5708;50.660;6.778;2022-11-21T15:16:34;12.73;;;2.40;;
11305;SDS011;5708;50.660;6.778;2022-11-21T15:19:00;9.35;;;2.40;;
11305;SDS011;5708;50.660;6.778;2022-11-21T15:21:25;9.70;;;2.28;;
11305;SDS011;5708;50.660;6.778;2022-11-21T15:23:50;12.73;;;2.75;;
11305;SDS011;5708;50.660;6.778;2022-11-21T15:26:32;10.68;;;2.63;;
11305;SDS011;5708;50.660;6.778;2022-11-21T15:28:59;10.52;;;2.47;;
11305;SDS011;5708;50.660;6.778;2022-11-21T15:31:25;13.98;;;3.20;;
11305;SDS011;5708;50.660;6.778;2022-11-21T15:33:57;13.50;;;2.65;;
11305;SDS011;5708;50.660;6.778;2022-11-21T15:36:32;13.27;;;3.03;;
11305;SDS011;5708;50.660;6.778;2022-11-21T15:41:24;11.13;;;2.70;;
11305;SDS011;5708;50.660;6.778;2022-11-21T15:43:53;10.93;;;2.67;;
11305;SDS011;5708;50.660;6.778;2022-11-21T15:46:29;18.98;;;2.85;;
11305;SDS011;5708;50.660;6.778;2022-11-21T15:51:35;8.63;;;2.45;;
11305;SDS011;5708;50.660;6.778;2022-11-21T15:54:17;6.78;;;1.85;;
11305;SDS011;5708;50.660;6.778;2022-11-21T15:56:44;10.57;;;2.13;;
11305;SDS011;5708;50.660;6.778;2022-11-21T15:59:11;13.30;;;1.95;;
11305;SDS011;5708;50.660;6.778;2022-11-21T16:01:36;11.80;;;2.47;;
11305;SDS011;5708;50.660;6.778;2022-11-21T16:04:03;8.05;;;2.08;;
11305;SDS011;5708;50.660;6.778;2022-11-21T16:06:29;6.93;;;2.17;;
11305;SDS011;5708;50.660;6.778;2022-11-21T16:08:55;10.40;;;2.67;;
11305;SDS011;5708;50.660;6.778;2022-11-21T16:13:51;11.00;;;2.20;;
11305;SDS011;5708;50.660;6.778;2022-11-21T16:16:18;10.75;;;2.45;;
11305;SDS011;5708;50.660;6.778;2022-11-21T16:18:43;10.65;;;2.30;;
11305;SDS011;5708;50.660;6.778;2022-11-21T16:21:09;12.32;;;2.53;;
11305;SDS011;5708;50.660;6.778;2022-11-21T16:23:35;9.50;;;2.10;;
11305;SDS011;5708;50.660;6.778;2022-11-21T16:26:01;12.05;;;2.67;;
11305;SDS011;5708;50.660;6.778;2022-11-21T16:28:27;12.15;;;2.47;;
11305;SDS011;5708;50.660;6.778;2022-11-21T16:30:52;16.63;;;2.30;;
11305;SDS011;5708;50.660;6.778;2022-11-21T16:33:17;11.70;;;1.85;;
11305;SDS011;5708;50.660;6.778;2022-11-21T16:35:43;10.90;;;2.47;;
11305;SDS011;5708;50.660;6.778;2022-11-21T16:38:08;17.15;;;2.58;;
11305;SDS011;5708;50.660;6.778;2022-11-21T16:40:34;16.70;;;3.33;;
11305;SDS011;5708;50.660;6.778;2022-11-21T16:43:09;12.95;;;1.88;;